QY8851 / EC-MAD 7700 Squawk Report (18th of November, 2020)

Aircraft B734 Reg No. EC-MAD Age 28 years old
Model 737 Jet engines 2 First flight 26-03-92
Registered 26-06-14 Rollout N/A Delivered 09-04-92
Construction No. 25261 Line No. 2258 Series 4Y0(SF)
ADSHEX 344544 Airline name Swiftair Owner Bank of Utah Trustee
Airfield based Madrid-Barajas~Madrid~EC First tracked N/A

Flight history for EC-MAD

Route Flight No Date Playback
Vitoria (VIT) - Valencia (VLC) QY8850 2020-11-30 05:36:00
???? N/A 2020-11-27 20:59:00
Vitoria (VIT) - Alicante (ALC) QY8436 2020-11-27 09:07:00
East Midlands Airport (EMA) - Vitoria (VIT) N/A 2020-11-27 08:05:00
Vitoria (VIT) - East Midlands Airport (EMA) QY373 2020-11-27 00:50:00
Valencia (VLC) - Vitoria (VIT) QY8851 2020-11-26 23:09:00
Vitoria (VIT) - Valencia (VLC) QY8850 2020-11-26 07:21:00
East Midlands Airport (EMA) - Vitoria (VIT) N/A 2020-11-26 06:30:00
Vitoria (VIT) - East Midlands Airport (EMA) QY373 2020-11-26 00:31:00
Valencia (VLC) - Vitoria (VIT) QY8851 2020-11-25 22:59:00
Vitoria (VIT) - Valencia (VLC) QY8850 2020-11-25 07:16:00
???? N/A 2020-11-25 06:32:00
Vitoria (VIT) - Koln Bonn (CGN) N/A 2020-11-25 01:00:00
Vitoria (VIT) - Valencia (VLC) N/A 2020-11-24 22:02:00
Vitoria (VIT) - Santiago (SCQ) N/A 2020-11-24 07:40:00
East Midlands Airport (EMA) - Vitoria (VIT) N/A 2020-11-24 04:09:00
Vitoria (VIT) - East Midlands Airport (EMA) QY373 2020-11-24 02:14:00
Valencia (VLC) - Vitoria (VIT) QY8851 2020-11-23 20:31:00
???? N/A 2020-11-23 05:52:00
???? N/A 2020-11-20 02:02:00
Time Lat Lon Altitude Heading Speed Vertical Rate
2020-11-18 20:31:57 GMT 42.537643 -2.920553 7,575 342 257 -1600
2020-11-18 20:31:48 GMT 42.528351 -2.916496 7,750 343 257 -1600
2020-11-18 20:31:38 GMT 42.516678 -2.911315 8,025 343 257 -1600
2020-11-18 20:31:28 GMT 42.504707 -2.906203 8,375 343 256 -1664
2020-11-18 20:31:18 GMT 42.493378 -2.901202 8,650 343 256 -1664
2020-11-18 20:31:08 GMT 42.481888 -2.896271 8,925 343 256 -1664
2020-11-18 20:30:58 GMT 42.470627 -2.891402 9,200 342 255 -1664
2020-11-18 20:30:48 GMT 42.458862 -2.886033 9,500 342 254 -1728
2020-11-18 20:30:37 GMT 42.447773 -2.881228 9,800 343 253 -1728
2020-11-18 20:30:27 GMT 42.436020 -2.875796 9,975 340 255 -256
2020-11-18 20:30:17 GMT 42.424850 -2.869492 9,950 335 267 64
2020-11-18 20:30:08 GMT 42.404526 -2.854198 10,125 330 280 -512
2020-11-18 20:29:59 GMT 42.402199 -2.852357 10,150 330 285 -512
2020-11-18 20:29:46 GMT 42.389538 -2.842138 10,250 330 293 -512
2020-11-18 20:29:36 GMT 42.377666 -2.832620 10,325 330 303 -448
2020-11-18 20:29:26 GMT 42.366028 -2.823112 10,425 329 310 -1152
2020-11-18 20:29:13 GMT 42.349781 -2.809945 10,900 330 312 -1984
2020-11-18 20:28:45 GMT 42.315720 -2.782600 11,800 330 315 -1984
2020-11-18 20:28:40 GMT 42.308956 -2.777178 11,975 330 315 -1984
2020-11-18 20:28:33 GMT 42.299316 -2.769449 12,225 330 317 -2048
2020-11-18 20:28:22 GMT 42.285866 -2.758399 12,525 330 318 -1664
2020-11-18 20:28:15 GMT 42.276489 -2.750889 12,675 330 325 -1280
2020-11-18 20:28:04 GMT 42.261379 -2.738662 13,025 329 327 -1984
2020-11-18 20:27:54 GMT 42.249664 -2.729166 13,250 330 330 -2048
2020-11-18 20:27:44 GMT 42.236481 -2.718430 13,600 330 332 -2048
2020-11-18 20:27:34 GMT 42.222610 -2.707506 14,025 330 335 -1984
2020-11-18 20:27:24 GMT 42.208916 -2.696377 14,350 330 338 -1920
2020-11-18 20:27:13 GMT 42.195511 -2.685533 14,575 329 342 -1216
2020-11-18 20:27:06 GMT 42.184475 -2.676576 14,725 330 346 -1024
2020-11-18 20:26:53 GMT 42.167065 -2.662588 15,000 330 353 -1920
2020-11-18 20:26:43 GMT 42.152912 -2.650963 15,350 330 356 -2112
2020-11-18 20:26:33 GMT 42.138611 -2.639653 15,700 330 358 -2112
2020-11-18 20:26:25 GMT 42.127121 -2.630539 15,975 330 360 -2112
2020-11-18 20:26:22 GMT 42.123596 -2.627543 16,075 330 361 -2112
2020-11-18 20:26:13 GMT 42.108593 -2.615768 16,425 330 364 -2048
2020-11-18 20:26:02 GMT 42.093929 -2.604079 16,750 330 367 -2048
2020-11-18 20:25:54 GMT 42.082352 -2.594709 17,125 330 370 -2112
2020-11-18 20:25:51 GMT 42.078140 -2.591400 17,125 330 371 -2112
2020-11-18 20:25:42 GMT 42.062485 -2.578728 17,525 330 375 -2176
2020-11-18 20:25:31 GMT 42.048203 -2.567368 17,850 330 380 -1728
2020-11-18 20:25:28 GMT 42.043488 -2.563685 17,925 330 381 -1600
2020-11-18 20:25:22 GMT 42.033325 -2.555632 18,100 330 384 -1792
2020-11-18 20:25:19 GMT 42.028385 -2.551702 18,200 330 385 -1984
2020-11-18 20:25:14 GMT 42.021866 -2.546401 18,375 330 387 -2112
2020-11-18 20:25:08 GMT 42.012909 -2.539340 18,575 330 389 -2176
2020-11-18 20:25:03 GMT 42.005585 -2.533347 18,750 330 391 -2176
2020-11-18 20:24:58 GMT 41.997147 -2.526855 18,925 330 393 -2176
2020-11-18 20:24:51 GMT 41.985352 -2.517367 19,200 330 394 -2176
2020-11-18 20:24:48 GMT 41.981461 -2.514371 19,300 330 395 -2240
2020-11-18 20:24:42 GMT 41.972336 -2.507310 19,500 330 397 -2240
2020-11-18 20:24:38 GMT 41.965260 -2.501625 19,675 330 398 -2240
2020-11-18 20:24:33 GMT 41.957485 -2.495429 19,850 330 399 -2240
2020-11-18 20:24:28 GMT 41.949280 -2.488903 20,050 330 400 -2240
2020-11-18 20:24:22 GMT 41.940674 -2.482348 20,250 330 401 -2240
2020-11-18 20:24:17 GMT 41.931694 -2.475054 20,450 330 403 -2240
2020-11-18 20:24:13 GMT 41.924698 -2.469677 20,600 330 404 -2176
2020-11-18 20:24:07 GMT 41.916046 -2.462685 20,800 330 406 -2240
2020-11-18 20:24:02 GMT 41.907532 -2.456131 21,000 330 406 -2368
2020-11-18 20:23:57 GMT 41.899933 -2.450014 21,200 330 408 -2304
2020-11-18 20:23:52 GMT 41.891281 -2.443272 21,400 330 410 -2304
2020-11-18 20:23:45 GMT 41.880859 -2.435069 21,600 330 411 -2304
2020-11-18 20:23:42 GMT 41.873692 -2.429448 21,800 330 412 -2304
2020-11-18 20:23:37 GMT 41.866241 -2.423547 21,975 330 413 -2304
2020-11-18 20:23:30 GMT 41.854652 -2.414373 22,250 330 416 -2304
2020-11-18 20:23:25 GMT 41.846329 -2.407754 22,425 330 418 -2304
2020-11-18 20:23:21 GMT 41.840515 -2.402947 22,575 330 419 -2240
2020-11-18 20:23:16 GMT 41.832184 -2.396518 22,750 330 421 -2240
2020-11-18 20:23:12 GMT 41.822994 -2.389207 22,950 330 423 -2240
2020-11-18 20:23:07 GMT 41.815037 -2.382820 23,125 330 424 -2112
2020-11-18 20:23:01 GMT 41.806656 -2.376368 23,275 330 427 -1920
2020-11-18 20:22:56 GMT 41.798042 -2.369406 23,450 330 429 -1856
2020-11-18 20:22:51 GMT 41.788467 -2.361748 23,625 330 432 -2304
2020-11-18 20:22:46 GMT 41.780273 -2.355444 23,825 330 433 -2432
2020-11-18 20:22:41 GMT 41.771210 -2.348016 24,050 330 435 -2496
2020-11-18 20:22:36 GMT 41.763428 -2.341961 24,225 330 436 -2432
2020-11-18 20:22:31 GMT 41.754192 -2.334850 24,450 330 438 -2368
2020-11-18 20:22:25 GMT 41.745071 -2.327603 24,650 330 440 -2368
2020-11-18 20:22:20 GMT 41.735710 -2.320223 24,850 330 441 -2368
2020-11-18 20:22:15 GMT 41.727329 -2.313644 25,050 330 444 -2432
2020-11-18 20:22:11 GMT 41.717239 -2.305756 25,275 330 446 -2432
2020-11-18 20:22:08 GMT 41.713783 -2.303041 25,500 330 446 -2432
2020-11-18 20:22:05 GMT 41.709408 -2.299656 25,450 330 447 -2368
2020-11-18 20:22:00 GMT 41.700005 -2.292310 25,650 330 449 -2368
2020-11-18 20:21:56 GMT 41.689903 -2.284390 25,875 330 451 -2368
2020-11-18 20:21:50 GMT 41.681385 -2.277811 26,075 330 453 -2368
2020-11-18 20:21:45 GMT 41.671749 -2.270210 26,275 330 455 -2432
2020-11-18 20:21:38 GMT 41.655624 -2.257566 26,650 330 458 -2432
2020-11-18 20:21:35 GMT 41.653702 -2.256130 26,675 330 458 -2368
2020-11-18 20:21:29 GMT 41.643906 -2.248577 26,875 330 461 -2112
2020-11-18 20:21:25 GMT 41.635437 -2.241835 27,050 330 463 -1920
2020-11-18 20:21:19 GMT 41.625137 -2.233908 27,225 330 465 -1984
2020-11-18 20:21:15 GMT 41.616585 -2.227223 27,400 330 467 -2752
2020-11-18 20:21:08 GMT 41.604904 -2.217990 27,700 330 466 -3840
2020-11-18 20:21:04 GMT 41.597542 -2.212276 28,050 330 464 -4736
2020-11-18 20:20:59 GMT 41.587025 -2.203909 28,525 330 460 -4736
2020-11-18 20:20:55 GMT 41.579018 -2.197713 28,825 330 458 -3776
2020-11-18 20:20:47 GMT 41.566677 -2.187940 29,200 330 458 -2752
2020-11-18 20:20:44 GMT 41.560226 -2.182908 29,925 329 459 -3200
2020-11-18 20:20:41 GMT 41.554779 -2.178539 29,475 330 459 -2624
2020-11-18 20:20:37 GMT 41.545807 -2.171548 29,675 330 460 -3008
2020-11-18 20:20:34 GMT 41.540936 -2.167756 29,825 330 459 -3200
2020-11-18 20:20:31 GMT 41.535488 -2.163476 30,000 330 459 -3200
2020-11-18 20:20:27 GMT 41.529053 -2.158377 30,225 330 459 -3136
2020-11-18 20:20:24 GMT 41.523201 -2.153831 30,350 330 459 -3136
2020-11-18 20:20:21 GMT 41.517792 -2.149388 30,500 330 459 -3136
2020-11-18 20:20:13 GMT 41.504013 -2.138713 30,800 330 459 -3072
2020-11-18 20:20:09 GMT 41.494152 -2.130901 31,150 330 459 -3072
2020-11-18 20:20:04 GMT 41.480255 -2.119924 32,025 331 458 -1024
2020-11-18 20:20:00 GMT 41.480255 -2.119924 31,525 330 458 -2752
2020-11-18 20:19:56 GMT 41.467026 -2.109625 31,775 330 458 -2112
2020-11-18 20:19:50 GMT 41.461517 -2.105479 31,900 330 458 -1536
2020-11-18 20:19:47 GMT 41.453091 -2.098772 32,000 330 458 -704
2020-11-18 20:19:44 GMT 41.435898 -2.085530 32,025 330 459 0
2020-11-18 20:19:36 GMT 41.435898 -2.085530 32,025 330 459 -64
2020-11-18 20:19:33 GMT 41.430141 -2.081143 32,025 330 459 0
2020-11-18 20:19:27 GMT 41.419388 -2.072839 32,025 330 459 0
2020-11-18 20:19:23 GMT 41.411289 -2.066388 32,025 330 459 0
2020-11-18 20:19:20 GMT 41.405701 -2.062172 32,025 330 459 0
2020-11-18 20:19:16 GMT 41.398254 -2.056296 32,025 330 459 0
2020-11-18 20:19:13 GMT 41.392914 -2.052196 32,025 330 458 0
2020-11-18 20:19:07 GMT 41.382660 -2.044373 32,025 330 458 0
2020-11-18 20:19:03 GMT 41.374371 -2.037901 32,025 330 458 0
2020-11-18 20:18:58 GMT 41.365620 -2.031035 32,025 330 458 0
2020-11-18 20:18:55 GMT 41.359039 -2.026001 32,025 330 458 0
2020-11-18 20:18:52 GMT 41.355286 -2.023132 32,025 330 458 0
2020-11-18 20:18:47 GMT 41.345261 -2.015320 32,025 330 458 0
2020-11-18 20:18:43 GMT 41.336609 -2.008545 32,025 330 458 0
2020-11-18 20:18:37 GMT 41.326469 -2.000760 32,025 330 458 0
2020-11-18 20:18:32 GMT 41.317440 -1.993706 32,025 330 458 0
2020-11-18 20:18:24 GMT 41.302589 -1.982221 32,025 330 458 0
2020-11-18 20:18:21 GMT 41.297096 -1.978101 32,025 330 458 -64
2020-11-18 20:18:17 GMT 41.288483 -1.971297 32,025 330 458 0
2020-11-18 20:18:12 GMT 41.280624 -1.965271 32,025 330 458 0
2020-11-18 20:18:06 GMT 41.270462 -1.957336 32,025 330 458 0
2020-11-18 20:18:02 GMT 41.262924 -1.951384 32,025 330 458 0
2020-11-18 20:17:56 GMT 41.250542 -1.941896 32,025 330 458 0
2020-11-18 20:17:53 GMT 41.246540 -1.938712 32,025 330 458 0
2020-11-18 20:17:50 GMT 41.241093 -1.934468 32,025 330 458 0
2020-11-18 20:17:44 GMT 41.227966 -1.924230 32,025 330 457 0
2020-11-18 20:17:41 GMT 41.224136 -1.921448 32,025 330 458 0
2020-11-18 20:17:36 GMT 41.214752 -1.914185 32,025 330 457 0
2020-11-18 20:17:32 GMT 41.206833 -1.908001 32,025 330 457 0
2020-11-18 20:17:29 GMT 41.201981 -1.904358 32,025 331 458 0
2020-11-18 20:17:23 GMT 41.190720 -1.895447 32,025 330 457 0
2020-11-18 20:17:16 GMT 41.176758 -1.884779 32,025 330 457 0
2020-11-18 20:17:11 GMT 41.169403 -1.879099 32,025 330 457 0
2020-11-18 20:17:05 GMT 41.158508 -1.870610 32,025 330 457 0
2020-11-18 20:17:01 GMT 41.151108 -1.864804 32,025 330 457 0
2020-11-18 20:16:57 GMT 41.144623 -1.859802 32,025 331 458 0
2020-11-18 20:16:53 GMT 41.134735 -1.852173 32,025 330 457 0
2020-11-18 20:16:50 GMT 41.132034 -1.849976 32,025 330 457 0
2020-11-18 20:16:45 GMT 41.120987 -1.841583 32,025 330 457 0
2020-11-18 20:16:40 GMT 41.113121 -1.835528 32,025 330 457 0
2020-11-18 20:16:34 GMT 41.102463 -1.827271 32,025 330 458 0
2020-11-18 20:16:31 GMT 41.094864 -1.821350 32,025 330 458 0
2020-11-18 20:16:26 GMT 41.086445 -1.814866 32,025 330 457 0
2020-11-18 20:16:23 GMT 41.081177 -1.810791 32,025 330 457 0
2020-11-18 20:16:20 GMT 41.076004 -1.806885 32,025 330 457 0
2020-11-18 20:16:13 GMT 41.061905 -1.796143 32,025 330 457 0
2020-11-18 20:16:10 GMT 41.057144 -1.792480 32,025 330 457 0
2020-11-18 20:16:04 GMT 41.046131 -1.783967 32,025 330 457 0
2020-11-18 20:16:00 GMT 41.038925 -1.778503 32,025 330 457 0
2020-11-18 20:15:54 GMT 41.027557 -1.769922 32,025 330 457 0
2020-11-18 20:15:50 GMT 41.020706 -1.764587 32,025 330 457 0
2020-11-18 20:15:46 GMT 41.013313 -1.758936 32,025 330 457 0
2020-11-18 20:15:42 GMT 41.005737 -1.753174 32,025 330 457 0
2020-11-18 20:15:39 GMT 41.001434 -1.749939 32,025 330 457 0
2020-11-18 20:15:32 GMT 40.987106 -1.739014 32,025 330 457 0
2020-11-18 20:15:29 GMT 40.983288 -1.735965 32,025 330 457 0
2020-11-18 20:15:23 GMT 40.971497 -1.727051 32,025 330 457 0
2020-11-18 20:15:20 GMT 40.963852 -1.721252 32,025 330 457 0
2020-11-18 20:15:13 GMT 40.946091 -1.707581 32,025 330 457 0
2020-11-18 20:15:09 GMT 40.946091 -1.707581 32,025 330 457 0
2020-11-18 20:15:03 GMT 40.934830 -1.699097 32,025 330 457 0
2020-11-18 20:14:59 GMT 40.927551 -1.693542 32,025 331 456 0
2020-11-18 20:14:51 GMT 40.910934 -1.681091 32,025 331 456 0
2020-11-18 20:14:42 GMT 40.895676 -1.669235 32,025 331 457 0
2020-11-18 20:14:39 GMT 40.890274 -1.665240 32,025 331 457 0
2020-11-18 20:14:35 GMT 40.881569 -1.658748 32,025 331 458 0
2020-11-18 20:14:31 GMT 40.874355 -1.653318 32,025 331 457 -64
2020-11-18 20:14:28 GMT 40.871143 -1.650945 32,025 331 457 -64
2020-11-18 20:14:22 GMT 40.860249 -1.642581 32,025 330 457 0
2020-11-18 20:14:19 GMT 40.852753 -1.636963 32,025 331 457 0
2020-11-18 20:14:16 GMT 40.849171 -1.634279 32,025 331 457 0
2020-11-18 20:14:12 GMT 40.842270 -1.629028 32,025 330 457 0
2020-11-18 20:14:08 GMT 40.834534 -1.623230 32,025 331 457 0
2020-11-18 20:14:04 GMT 40.826889 -1.617432 32,025 331 458 0
2020-11-18 20:14:01 GMT 40.821442 -1.613403 32,025 331 457 0
2020-11-18 20:13:58 GMT 40.815792 -1.609060 32,025 331 457 0
2020-11-18 20:13:51 GMT 40.803223 -1.599609 32,025 331 457 0
2020-11-18 20:13:48 GMT 40.796288 -1.594391 32,025 331 457 0
2020-11-18 20:13:40 GMT 40.783035 -1.584412 32,025 330 457 0
2020-11-18 20:13:37 GMT 40.777451 -1.580200 32,025 331 457 0
2020-11-18 20:13:32 GMT 40.766445 -1.571919 32,025 331 457 0
2020-11-18 20:13:28 GMT 40.759510 -1.566738 32,025 331 456 0
2020-11-18 20:13:20 GMT 40.746323 -1.556824 32,025 331 457 64
2020-11-18 20:13:17 GMT 40.740509 -1.552551 32,025 331 457 0
2020-11-18 20:13:11 GMT 40.728973 -1.543891 31,800 330 459 960
2020-11-18 20:13:08 GMT 40.722198 -1.538879 32,050 331 457 -192
2020-11-18 20:13:00 GMT 40.708832 -1.528809 32,050 331 456 128
2020-11-18 20:12:57 GMT 40.703430 -1.524719 32,025 331 456 576
2020-11-18 20:12:50 GMT 40.684143 -1.510433 31,900 331 458 960
2020-11-18 20:12:47 GMT 40.684143 -1.510433 31,875 331 458 960
2020-11-18 20:12:40 GMT 40.672073 -1.501404 31,775 331 459 896
2020-11-18 20:12:37 GMT 40.665573 -1.496704 31,725 331 458 960
2020-11-18 20:12:31 GMT 40.653763 -1.487854 31,625 331 459 896
2020-11-18 20:12:27 GMT 40.646988 -1.482849 31,575 331 459 896
2020-11-18 20:12:20 GMT 40.633896 -1.473022 31,450 331 459 896
2020-11-18 20:12:16 GMT 40.628372 -1.468922 31,400 331 459 896
2020-11-18 20:12:08 GMT 40.611511 -1.456238 31,275 331 459 960
2020-11-18 20:12:05 GMT 40.607983 -1.453691 31,100 331 459 1216
2020-11-18 20:11:59 GMT 40.590153 -1.440083 31,100 330 458 1536
2020-11-18 20:11:56 GMT 40.590153 -1.440083 31,050 330 458 1728
2020-11-18 20:11:50 GMT 40.578003 -1.431030 30,825 330 460 1920
2020-11-18 20:11:46 GMT 40.571857 -1.426163 30,725 330 460 1984
2020-11-18 20:11:43 GMT 40.564594 -1.420732 30,575 331 462 1984
2020-11-18 20:11:37 GMT 40.553970 -1.412659 30,375 330 461 1984
2020-11-18 20:11:34 GMT 40.547932 -1.408060 30,275 331 462 1984
2020-11-18 20:11:29 GMT 40.540375 -1.402527 30,125 331 462 2048
2020-11-18 20:11:26 GMT 40.534790 -1.398132 30,050 331 463 2048
2020-11-18 20:11:23 GMT 40.529160 -1.394104 29,950 331 463 2048
2020-11-18 20:11:17 GMT 40.510921 -1.380345 29,700 331 464 2048
2020-11-18 20:11:14 GMT 40.510921 -1.380345 29,600 331 464 2048
2020-11-18 20:11:09 GMT 40.503113 -1.374390 29,475 331 464 1920
2020-11-18 20:11:06 GMT 40.497093 -1.369920 29,150 331 465 1984
2020-11-18 20:11:03 GMT 40.492172 -1.366089 29,275 331 465 2048
2020-11-18 20:10:59 GMT 40.483566 -1.359741 29,125 331 465 1984
2020-11-18 20:10:56 GMT 40.477341 -1.355103 29,025 331 465 1856
2020-11-18 20:10:53 GMT 40.472809 -1.351624 28,950 331 465 1792
2020-11-18 20:10:48 GMT 40.458755 -1.341187 28,800 331 465 1664
2020-11-18 20:10:45 GMT 40.458755 -1.341187 28,725 331 465 1664
2020-11-18 20:10:42 GMT 40.453056 -1.336836 28,650 331 465 1600
2020-11-18 20:10:38 GMT 40.445892 -1.331421 28,500 331 464 1472
2020-11-18 20:10:35 GMT 40.438980 -1.326477 28,475 331 462 1472
2020-11-18 20:10:32 GMT 40.434448 -1.322998 28,400 331 462 1472
2020-11-18 20:10:28 GMT 40.427128 -1.317485 28,300 331 461 1472
2020-11-18 20:10:24 GMT 40.418747 -1.311279 28,225 331 461 1472
2020-11-18 20:10:21 GMT 40.412430 -1.306519 28,125 331 458 1408
2020-11-18 20:10:18 GMT 40.407578 -1.302917 27,525 330 455 1600
2020-11-18 20:10:15 GMT 40.402451 -1.299072 28,000 331 459 1408
2020-11-18 20:10:08 GMT 40.388954 -1.289021 27,225 331 452 1920
2020-11-18 20:10:04 GMT 40.381531 -1.283508 27,525 331 453 1600
2020-11-18 20:09:58 GMT 40.370472 -1.275350 27,550 331 454 1600
2020-11-18 20:09:54 GMT 40.363213 -1.269982 27,450 331 454 1600
2020-11-18 20:09:48 GMT 40.353062 -1.262242 27,250 331 452 1728
2020-11-18 20:09:45 GMT 40.345505 -1.256775 27,175 331 452 1856
2020-11-18 20:09:37 GMT 40.332916 -1.247253 27,000 331 452 1920
2020-11-18 20:09:34 GMT 40.324722 -1.241150 26,675 331 451 2112
2020-11-18 20:09:26 GMT 40.313828 -1.233093 26,600 331 451 2176
2020-11-18 20:09:22 GMT 40.305862 -1.227051 26,425 331 450 2176
2020-11-18 20:09:17 GMT 40.296455 -1.220044 26,225 331 450 2048
2020-11-18 20:09:13 GMT 40.289520 -1.215027 26,225 331 450 2048
2020-11-18 20:09:06 GMT 40.277088 -1.205812 25,900 331 448 1856
2020-11-18 20:09:02 GMT 40.269562 -1.200134 25,650 331 448 1920
2020-11-18 20:08:58 GMT 40.259857 -1.192932 25,600 331 448 1920
2020-11-18 20:08:46 GMT 40.241058 -1.179220 25,025 330 443 1408
2020-11-18 20:08:40 GMT 40.230305 -1.170918 25,150 331 443 1472
2020-11-18 20:08:37 GMT 40.224068 -1.166236 24,650 330 441 1216
2020-11-18 20:08:30 GMT 40.211884 -1.157166 24,925 331 438 1024
2020-11-18 20:08:26 GMT 40.205475 -1.152405 24,875 331 436 1024
2020-11-18 20:08:18 GMT 40.190876 -1.141579 24,675 331 435 1024
2020-11-18 20:08:15 GMT 40.185745 -1.137695 24,700 331 431 1024
2020-11-18 20:08:12 GMT 40.178677 -1.132466 24,575 331 427 1088
2020-11-18 20:08:06 GMT 40.170670 -1.126348 24,475 331 424 896
2020-11-18 20:08:03 GMT 40.164013 -1.121479 24,450 331 421 832
2020-11-18 20:07:56 GMT 40.152748 -1.113052 24,350 331 417 960
2020-11-18 20:07:53 GMT 40.147579 -1.109120 24,275 331 414 1280
2020-11-18 20:07:46 GMT 40.135338 -1.100131 24,075 331 411 1984
2020-11-18 20:07:43 GMT 40.130451 -1.096323 23,975 331 411 2240
2020-11-18 20:07:33 GMT 40.107079 -1.079095 22,000 331 411 2880
2020-11-18 20:07:22 GMT 40.096977 -1.071417 23,000 331 413 3392
2020-11-18 20:07:14 GMT 40.083942 -1.061804 22,625 331 416 1856
2020-11-18 20:07:04 GMT 40.066544 -1.049011 22,425 331 412 1600
2020-11-18 20:06:56 GMT 40.047119 -1.034588 21,750 330 407 2048
2020-11-18 20:06:45 GMT 40.035782 -1.026123 21,775 331 408 2048
2020-11-18 20:06:33 GMT 40.005875 -1.004001 21,175 331 401 2112
2020-11-18 20:06:24 GMT 40.001034 -1.000505 20,900 331 398 2176
2020-11-18 20:06:15 GMT 39.986557 -0.989643 20,525 331 396 2176
2020-11-18 20:06:03 GMT 39.960861 -0.970480 20,350 331 394 2368
2020-11-18 20:05:57 GMT 39.955856 -0.966675 20,025 331 393 2240
2020-11-18 20:05:54 GMT 39.953888 -0.965088 19,950 331 392 2240
2020-11-18 20:05:44 GMT 39.937771 -0.953251 19,525 331 388 2688
2020-11-18 20:05:32 GMT 39.910583 -0.932883 18,750 331 385 2752
2020-11-18 20:05:24 GMT 39.906555 -0.929837 18,675 331 385 2816
2020-11-18 20:05:13 GMT 39.888004 -0.916138 17,850 330 379 2560
2020-11-18 20:05:04 GMT 39.875977 -0.907208 17,775 331 380 2496
2020-11-18 20:04:54 GMT 39.860260 -0.895447 17,275 330 375 2432
2020-11-18 20:04:46 GMT 39.840088 -0.880280 16,775 330 371 2560
2020-11-18 20:04:41 GMT 39.831676 -0.874084 15,775 330 365 2240
2020-11-18 20:04:30 GMT 39.817944 -0.863647 15,775 330 365 2240
2020-11-18 20:04:24 GMT 39.815002 -0.861352 16,100 330 363 2240
2020-11-18 20:04:13 GMT 39.799046 -0.849365 15,675 330 357 2368
2020-11-18 20:04:01 GMT 39.774811 -0.831796 14,825 332 354 2560
2020-11-18 20:03:47 GMT 39.761078 -0.821885 14,500 332 345 2176
2020-11-18 20:03:43 GMT 39.756729 -0.818909 14,400 332 344 2496
2020-11-18 20:03:31 GMT 39.731682 -0.801208 13,750 331 332 1216
2020-11-18 20:03:15 GMT 39.712280 -0.787314 13,400 331 308 1984
2020-11-18 20:03:00 GMT 39.692814 -0.773132 12,875 331 300 2304
2020-11-18 20:02:55 GMT 39.688110 -0.769836 12,725 332 299 2368
2020-11-18 20:02:45 GMT 39.680710 -0.764160 12,475 330 295 2496
2020-11-18 20:02:30 GMT 39.658493 -0.746593 11,600 329 288 2688
2020-11-18 20:02:24 GMT 39.657246 -0.745544 11,250 330 287 2624
2020-11-18 20:02:14 GMT 39.640720 -0.732788 11,000 330 283 1856
2020-11-18 20:01:59 GMT 39.623634 -0.720154 10,475 331 266 2816
2020-11-18 20:01:54 GMT 39.612926 -0.712219 10,450 330 262 2560
2020-11-18 20:01:43 GMT 39.605621 -0.706421 9,675 329 265 2560
2020-11-18 20:01:29 GMT 39.592491 -0.696228 9,075 329 258 3200
2020-11-18 20:01:18 GMT 39.569588 -0.677795 8,975 329 259 3264
2020-11-18 20:01:12 GMT 39.565071 -0.674316 7,075 328 259 3776
2020-11-18 20:00:58 GMT 39.560669 -0.670883 7,250 330 261 3456
2020-11-18 20:00:52 GMT 39.559486 -0.670044 7,200 331 260 3456
2020-11-18 20:00:42 GMT 39.548779 -0.661621 6,600 324 262 3584
2020-11-18 20:00:29 GMT 39.534897 -0.639118 5,950 300 256 1408
2020-11-18 20:00:22 GMT 39.530811 -0.630310 5,400 300 240 2176
2020-11-18 20:00:12 GMT 39.526154 -0.619934 5,475 302 234 2624
2020-11-18 19:59:58 GMT 39.517776 -0.601143 4,675 299 234 3264
2020-11-18 19:59:41 GMT 39.507954 -0.578674 4,225 300 220 1280
2020-11-18 19:59:27 GMT 39.502670 -0.566751 3,975 300 196 1344
2020-11-18 19:59:12 GMT 39.496399 -0.551466 3,600 298 177 1344
2020-11-18 19:58:57 GMT 39.490776 -0.537720 3,025 296 171 2368
2020-11-18 19:58:42 GMT 39.485825 -0.523821 2,450 294 165 2880
2020-11-18 19:58:24 GMT 39.474667 -0.493958 2,000 295 168 3392
2020-11-18 19:58:19 GMT 39.471550 -0.486511 325 300 164 3008
2020-11-18 19:58:08 GMT 39.469456 -0.481689 925 298 171 2368
2020-11-18 19:57:59 GMT 39.470665 -0.484375 200 298 166 3072
2020-11-18 19:57:49 GMT 39.468662 -0.479553 -50 297 163 2368
2020-11-18 19:57:26 GMT 39.462749 -0.463745 0 94
2020-11-18 19:57:08 GMT 39.461006 -0.458694 0 14
2020-11-18 19:56:56 GMT 39.460995 -0.457993 0 8
2020-11-18 19:56:45 GMT 39.461330 -0.457993 0 13
2020-11-18 19:54:24 GMT 39.465801 -0.462448 0 15
2020-11-18 19:54:14 GMT 39.465977 -0.462616 0 14
2020-11-18 19:54:03 GMT 39.466312 -0.463135 0 10
2020-11-18 19:53:53 GMT 39.466675 -0.463486 0 7
2020-11-18 19:53:43 GMT 39.467010 -0.463654 0 7
2020-11-18 19:53:26 GMT 39.467175 -0.463837 0 9
2020-11-18 19:53:19 GMT 39.467522 -0.464005 0 10
2020-11-18 19:53:13 GMT 39.468037 -0.464340 0 13
2020-11-18 19:53:03 GMT 39.468716 -0.464680 0 13
2020-11-18 19:52:53 GMT 39.468895 -0.465027 0 15
2020-11-18 19:52:38 GMT 39.469246 -0.465530 0 19
2020-11-18 19:52:31 GMT 39.469570 -0.466202 0 19
2020-11-18 19:52:22 GMT 39.470432 -0.468109 0 17
2020-11-18 19:52:11 GMT 39.470955 -0.469147 0 17
2020-11-18 19:52:02 GMT 39.470955 -0.469315 0 17
2020-11-18 19:51:50 GMT 39.471130 -0.469833 0 17
2020-11-18 19:51:41 GMT 39.471455 -0.470856 0 14
2020-11-18 19:51:31 GMT 39.471981 -0.471878 0 17
2020-11-18 19:51:20 GMT 39.472157 -0.472229 0 19
2020-11-18 19:51:07 GMT 39.472855 -0.473618 0 19
2020-11-18 19:50:59 GMT 39.473866 -0.475494 0 14
2020-11-18 19:50:50 GMT 39.474213 -0.476181 0 12
2020-11-18 19:50:39 GMT 39.474213 -0.476196 0 13
2020-11-18 19:50:24 GMT 39.474716 -0.476196 0 12
2020-11-18 19:50:18 GMT 39.474888 -0.476181 0 11

Making use of Plane Finder data

You are free to use the raw flight data, aircraft information and images provided in this report for your own purposes provided the data is correctly attributed to Plane Finder. We ask that you please credit Plane Finder and link to planefinder.net in close proximity to the content.

Optionally one of the following logos (no smaller then 150x24px) can be used and must link to planefinder.net

Embedding the Plane Finder map

You are welcome to embed the Plane Finder playback map on your website to offer visitors a more interactive experience. We suggest using the following HTML code:

<iframe src="//planefinder.net/data/report/QY8851-EC-MAD-7700-squawk-2020-11-18/map" width="800" height="600" seamless="seamless"></iframe>

Where our data comes from

Plane Finder has a global network of data feeds and antenna radars that receive data broadcast directly from aircraft. The primary technologies used are ADS-B and MLAT. We also show feeds from the FAA and a FLARM glider feed.

Click here to find out more about the Plane Finder network.

How we collect our data